Time;durP1;ratioP1;P1;durP2;ratioP2;P2;SDS_P1;SDS_P2;PMS_P1;PMS_P2;Temp;Humidity;BMP_temperature;BMP_pressure;BME280_temperature;BME280_humidity;BME280_pressure;Samples;Min_cycle;Max_cycle;Signal;HPM_P1;HPM_P2
2022/08/29 00:00:19;;;;;;;9.35;5.28;;;23.70;86.30;;;;;;6095586;23;20457;-66
2022/08/29 00:02:51;;;;;;;13.52;5.63;;;23.70;86.30;;;;;;6095932;23;20023;-66
2022/08/29 00:05:19;;;;;;;8.95;5.65;;;23.70;86.30;;;;;;6095411;23;20002;-66
2022/08/29 00:07:45;;;;;;;12.80;6.22;;;23.60;86.30;;;;;;6095635;23;20036;-66
2022/08/29 00:10:12;;;;;;;8.30;5.70;;;23.70;86.40;;;;;;6095695;23;20006;-66
2022/08/29 00:12:38;;;;;;;10.45;5.70;;;23.60;86.40;;;;;;6096355;23;20116;-66
2022/08/29 00:15:06;;;;;;;6.75;5.57;;;23.60;86.50;;;;;;6097269;23;20003;-67
2022/08/29 00:17:32;;;;;;;9.88;6.22;;;23.60;86.50;;;;;;6097223;23;20057;-66
2022/08/29 00:19:58;;;;;;;11.25;5.72;;;23.60;86.60;;;;;;6097545;23;20421;-66
2022/08/29 00:22:23;;;;;;;9.38;5.60;;;23.60;86.70;;;;;;6097539;23;20093;-66
2022/08/29 00:24:49;;;;;;;8.20;5.40;;;23.50;86.70;;;;;;6097485;23;20341;-66
2022/08/29 00:27:15;;;;;;;16.20;5.82;;;23.50;86.80;;;;;;6097130;23;20069;-66
2022/08/29 00:29:41;;;;;;;7.25;5.53;;;23.50;87.00;;;;;;6097259;23;20078;-66
2022/08/29 00:32:06;;;;;;;13.13;5.75;;;23.50;87.10;;;;;;6097355;23;20379;-66
2022/08/29 00:34:32;;;;;;;7.82;5.75;;;23.50;87.30;;;;;;6097497;23;20037;-66
2022/08/29 00:36:58;;;;;;;10.77;5.90;;;23.50;87.30;;;;;;6097557;23;20077;-66
2022/08/29 00:39:23;;;;;;;13.57;6.20;;;23.50;87.50;;;;;;6097062;23;20337;-66
2022/08/29 00:41:50;;;;;;;13.35;6.55;;;23.50;87.50;;;;;;6096789;23;20134;-66
2022/08/29 00:44:15;;;;;;;8.57;5.97;;;23.50;87.40;;;;;;6097411;23;20062;-65
2022/08/29 00:46:41;;;;;;;11.30;6.90;;;23.50;87.50;;;;;;6097420;23;20042;-66
2022/08/29 00:49:48;;;;;;;11.20;6.32;;;23.40;87.50;;;;;;6097313;23;20018;-66
2022/08/29 00:52:31;;;;;;;8.63;5.97;;;23.50;87.50;;;;;;6092867;23;20010;-66
2022/08/29 00:54:59;;;;;;;9.52;5.88;;;23.40;87.50;;;;;;6097965;23;20018;-66
2022/08/29 00:57:29;;;;;;;12.18;6.45;;;23.40;87.40;;;;;;6097712;23;20009;-66
2022/08/29 00:59:56;;;;;;;9.38;5.32;;;23.40;87.10;;;;;;6098000;23;20022;-66
2022/08/29 01:02:21;;;;;;;11.18;5.05;;;23.40;86.70;;;;;;6097928;23;20010;-66
2022/08/29 01:04:47;;;;;;;10.13;5.53;;;23.40;86.80;;;;;;6098117;23;20093;-66
2022/08/29 01:07:13;;;;;;;9.85;5.43;;;23.30;86.60;;;;;;6097885;23;20307;-66
2022/08/29 01:09:41;;;;;;;9.13;5.53;;;23.30;86.40;;;;;;6097764;23;20081;-66
2022/08/29 01:12:16;;;;;;;7.60;5.40;;;23.30;86.40;;;;;;6097859;23;20093;-66
2022/08/29 01:14:54;;;;;;;9.55;5.32;;;23.30;86.70;;;;;;6097878;23;20002;-66
2022/08/29 01:17:24;;;;;;;8.38;4.72;;;23.30;86.40;;;;;;6097840;23;20002;-66
2022/08/29 01:20:20;;;;;;;7.00;4.85;;;23.30;86.20;;;;;;6097895;23;20057;-66
2022/08/29 01:23:04;;;;;;;10.18;5.35;;;23.30;86.20;;;;;;6098036;23;20022;-66
2022/08/29 01:25:38;;;;;;;7.38;5.03;;;23.30;86.00;;;;;;6097713;23;20003;-66
2022/08/29 01:28:14;;;;;;;9.27;5.55;;;23.30;85.90;;;;;;6097775;23;20417;-66
2022/08/29 01:31:11;;;;;;;8.88;5.10;;;23.30;86.00;;;;;;6097685;23;20006;-66
2022/08/29 01:33:53;;;;;;;10.95;4.90;;;23.30;86.00;;;;;;6097756;23;20006;-66
2022/08/29 01:36:25;;;;;;;10.95;4.95;;;23.30;85.90;;;;;;6097894;23;20366;-66
2022/08/29 01:38:51;;;;;;;9.07;5.00;;;23.30;85.70;;;;;;6097752;23;20005;-66
2022/08/29 01:41:19;;;;;;;7.93;5.10;;;23.30;85.70;;;;;;6097577;23;20041;-66
2022/08/29 01:43:56;;;;;;;7.10;5.13;;;23.30;85.70;;;;;;6097330;23;20053;-67
2022/08/29 01:46:29;;;;;;;7.13;5.30;;;23.20;85.60;;;;;;6097688;23;20437;-66
2022/08/29 01:48:55;;;;;;;9.70;5.05;;;23.20;85.60;;;;;;6097995;23;19998;-66
2022/08/29 01:51:23;;;;;;;8.95;5.20;;;23.20;85.70;;;;;;6097532;23;20002;-65
2022/08/29 01:53:49;;;;;;;10.68;4.90;;;23.20;85.70;;;;;;6097412;23;20085;-66
2022/08/29 01:56:19;;;;;;;10.27;6.43;;;23.20;85.90;;;;;;6097218;23;20003;-66
2022/08/29 01:58:47;;;;;;;11.48;5.82;;;23.20;86.10;;;;;;6097250;23;20014;-66
2022/08/29 02:01:16;;;;;;;7.05;5.70;;;23.20;86.30;;;;;;6097479;23;20002;-66
2022/08/29 02:03:41;;;;;;;11.88;6.50;;;23.10;86.50;;;;;;6097438;23;20014;-66
2022/08/29 02:06:09;;;;;;;12.77;6.10;;;23.10;86.70;;;;;;6097285;23;20009;-66
2022/08/29 02:08:36;;;;;;;9.50;6.00;;;23.10;86.80;;;;;;6097449;23;20050;-66
2022/08/29 02:11:02;;;;;;;10.52;5.70;;;23.00;87.00;;;;;;6097726;23;20024;-66
2022/08/29 02:13:28;;;;;;;11.52;6.18;;;23.10;87.10;;;;;;6097407;23;20006;-66
2022/08/29 02:15:53;;;;;;;9.73;5.90;;;23.10;87.30;;;;;;6097683;23;20006;-66
2022/08/29 02:18:20;;;;;;;12.95;6.22;;;23.00;87.30;;;;;;6097211;23;20334;-66
2022/08/29 02:20:46;;;;;;;8.10;5.97;;;23.00;87.40;;;;;;6097272;23;20002;-66
2022/08/29 02:23:12;;;;;;;10.60;5.90;;;23.00;87.40;;;;;;6097227;23;20017;-66
2022/08/29 02:25:40;;;;;;;12.88;6.07;;;23.00;87.50;;;;;;6097472;23;20007;-66
2022/08/29 02:28:10;;;;;;;11.45;5.55;;;23.00;87.50;;;;;;6097057;23;20337;-66
2022/08/29 02:30:38;;;;;;;13.75;5.97;;;23.00;87.50;;;;;;6097173;23;20001;-66
2022/08/29 02:33:04;;;;;;;11.63;6.28;;;23.00;87.50;;;;;;6097031;23;20006;-66
2022/08/29 02:35:30;;;;;;;12.45;5.78;;;23.00;87.50;;;;;;6097335;23;20333;-66
2022/08/29 02:37:55;;;;;;;12.45;5.97;;;23.00;87.50;;;;;;6097280;23;20003;-66
2022/08/29 02:40:21;;;;;;;14.38;6.25;;;23.10;87.60;;;;;;6097009;23;20003;-66
2022/08/29 02:42:47;;;;;;;8.85;5.95;;;23.00;87.50;;;;;;6097378;23;20053;-66
2022/08/29 02:45:12;;;;;;;13.15;6.28;;;23.00;87.50;;;;;;6097593;23;20002;-66
2022/08/29 02:47:39;;;;;;;10.57;6.40;;;23.00;87.30;;;;;;6097154;23;20010;-66
2022/08/29 02:50:07;;;;;;;14.95;6.13;;;23.00;87.30;;;;;;6097335;23;20089;-66
2022/08/29 02:52:33;;;;;;;10.88;5.95;;;23.10;87.30;;;;;;6097631;23;20015;-66
2022/08/29 02:54:59;;;;;;;14.63;6.13;;;23.00;87.10;;;;;;6097367;23;20013;-66
2022/08/29 02:57:26;;;;;;;10.57;6.10;;;23.10;87.20;;;;;;6096788;23;20010;-66
2022/08/29 02:59:51;;;;;;;7.82;4.95;;;23.10;87.60;;;;;;6096847;23;20019;-66
2022/08/29 03:02:17;;;;;;;11.68;5.97;;;23.10;87.80;;;;;;6097069;23;20010;-66
2022/08/29 03:04:43;;;;;;;11.27;5.90;;;23.10;87.90;;;;;;6097211;23;20014;-66
2022/08/29 03:07:09;;;;;;;10.68;6.05;;;23.00;87.90;;;;;;6097051;23;20421;-65
2022/08/29 03:09:34;;;;;;;10.25;5.80;;;23.10;88.00;;;;;;6096999;23;20002;-66
2022/08/29 03:12:00;;;;;;;12.30;5.75;;;23.10;88.10;;;;;;6096802;23;20066;-66
2022/08/29 03:14:26;;;;;;;6.65;5.60;;;23.10;88.00;;;;;;6096809;23;20002;-66
2022/08/29 03:16:51;;;;;;;9.52;6.13;;;23.00;88.00;;;;;;6097168;23;20529;-66
2022/08/29 03:19:17;;;;;;;9.35;5.45;;;23.10;88.10;;;;;;6097279;23;20010;-66
2022/08/29 03:21:44;;;;;;;10.70;6.18;;;23.10;88.10;;;;;;6097168;23;20073;-67
2022/08/29 03:24:10;;;;;;;11.00;6.18;;;23.10;88.00;;;;;;6096775;23;20477;-66
2022/08/29 03:26:36;;;;;;;12.05;5.88;;;23.10;88.10;;;;;;6096730;23;20002;-66
2022/08/29 03:29:03;;;;;;;8.40;5.18;;;23.00;88.00;;;;;;6096955;23;20002;-66
2022/08/29 03:31:28;;;;;;;13.10;5.80;;;23.00;88.10;;;;;;6097294;23;20018;-67
2022/08/29 03:33:55;;;;;;;12.13;6.55;;;23.00;88.20;;;;;;6097050;23;20429;-66
2022/08/29 03:36:22;;;;;;;6.78;5.30;;;23.00;88.20;;;;;;6096731;23;20006;-66
2022/08/29 03:38:47;;;;;;;7.70;5.70;;;23.00;88.20;;;;;;6096870;23;20025;-66
2022/08/29 03:41:26;;;;;;;8.40;5.78;;;23.00;88.30;;;;;;6096741;23;20449;-66
2022/08/29 03:43:54;;;;;;;9.93;5.68;;;23.00;88.40;;;;;;6096649;23;20023;-66
2022/08/29 03:46:20;;;;;;;10.45;5.90;;;23.00;88.10;;;;;;6096805;23;20013;-66
2022/08/29 03:48:47;;;;;;;11.07;6.28;;;23.00;88.00;;;;;;6098637;23;20006;-65
2022/08/29 03:51:14;;;;;;;6.90;5.97;;;23.00;88.40;;;;;;6098746;23;19998;-66
2022/08/29 03:53:39;;;;;;;10.35;6.03;;;23.00;88.50;;;;;;6098712;23;20010;-66
2022/08/29 03:56:06;;;;;;;9.32;5.40;;;23.00;88.50;;;;;;6098742;23;20053;-66
2022/08/29 03:58:33;;;;;;;9.73;5.80;;;22.90;88.40;;;;;;6098522;23;20021;-66
2022/08/29 04:00:59;;;;;;;11.95;5.93;;;22.90;88.50;;;;;;6098747;23;20005;-65
2022/08/29 04:03:25;;;;;;;10.82;5.75;;;22.90;88.60;;;;;;6098724;23;20010;-66
2022/08/29 04:05:50;;;;;;;8.57;6.28;;;22.90;88.60;;;;;;6098797;23;20362;-66
2022/08/29 04:08:16;;;;;;;9.32;6.07;;;22.90;88.80;;;;;;6098451;23;20018;-66
2022/08/29 04:10:42;;;;;;;15.27;6.20;;;22.90;89.00;;;;;;6098882;23;20006;-66
2022/08/29 04:13:08;;;;;;;10.15;5.63;;;22.80;89.00;;;;;;6098770;23;20426;-66
2022/08/29 04:15:34;;;;;;;9.18;5.38;;;22.90;89.20;;;;;;6098388;23;20007;-66
2022/08/29 04:18:03;;;;;;;12.05;5.20;;;22.80;89.30;;;;;;6098483;23;20034;-66
2022/08/29 04:20:31;;;;;;;9.02;6.05;;;22.90;89.40;;;;;;6098072;23;20450;-66
2022/08/29 04:22:58;;;;;;;8.95;5.75;;;22.80;89.40;;;;;;6098269;23;20018;-67
2022/08/29 04:25:26;;;;;;;8.93;5.20;;;22.90;89.40;;;;;;6098658;23;20030;-66
2022/08/29 04:27:54;;;;;;;11.07;5.93;;;22.90;89.40;;;;;;6098314;23;20053;-66
2022/08/29 04:30:23;;;;;;;11.57;5.57;;;22.90;89.40;;;;;;6098616;23;20306;-65
2022/08/29 04:32:49;;;;;;;11.98;5.50;;;22.90;89.10;;;;;;6098297;23;20018;-66
2022/08/29 04:35:15;;;;;;;9.27;5.70;;;22.90;89.00;;;;;;6098615;23;20010;-66
2022/08/29 04:37:42;;;;;;;8.38;5.50;;;22.90;88.90;;;;;;6098314;23;20018;-66
2022/08/29 04:40:11;;;;;;;9.75;5.63;;;22.90;89.00;;;;;;6098738;23;20414;-66
2022/08/29 04:42:37;;;;;;;10.38;5.75;;;22.90;89.00;;;;;;6097934;23;20011;-66
2022/08/29 04:45:05;;;;;;;14.45;6.03;;;22.90;88.90;;;;;;6098522;23;20391;-66
2022/08/29 04:47:31;;;;;;;13.90;6.30;;;22.90;88.70;;;;;;6098119;23;20007;-66
2022/08/29 04:49:56;;;;;;;14.60;5.78;;;22.90;88.40;;;;;;6098109;23;20476;-66
2022/08/29 04:52:23;;;;;;;14.32;6.15;;;22.90;88.30;;;;;;6097999;23;20476;-66
2022/08/29 04:54:49;;;;;;;13.48;6.55;;;22.90;88.20;;;;;;6098378;23;20017;-66
2022/08/29 04:57:15;;;;;;;10.88;6.10;;;22.90;88.10;;;;;;6097896;23;20013;-66
2022/08/29 04:59:40;;;;;;;10.27;6.25;;;22.80;88.00;;;;;;6097414;23;20024;-66
2022/08/29 05:02:07;;;;;;;12.68;6.22;;;22.80;88.20;;;;;;6098133;23;20139;-66
2022/08/29 05:04:33;;;;;;;11.07;6.03;;;22.80;88.30;;;;;;6098277;23;20010;-66
2022/08/29 05:06:59;;;;;;;9.98;5.80;;;22.80;88.50;;;;;;6097997;23;20285;-66
2022/08/29 05:09:24;;;;;;;11.73;5.90;;;22.80;88.60;;;;;;6097771;23;20017;-66
2022/08/29 05:11:50;;;;;;;11.85;5.40;;;22.80;88.60;;;;;;6098007;23;19998;-66
2022/08/29 05:14:16;;;;;;;17.08;6.20;;;22.80;88.70;;;;;;6097950;23;20366;-66
2022/08/29 05:16:41;;;;;;;14.88;6.13;;;22.80;89.00;;;;;;6098101;23;20002;-67
2022/08/29 05:19:07;;;;;;;10.20;5.55;;;22.80;88.90;;;;;;6097965;23;20108;-66
2022/08/29 05:21:35;;;;;;;12.65;5.80;;;22.80;88.90;;;;;;6098013;23;20073;-67
2022/08/29 05:24:04;;;;;;;16.77;6.07;;;22.70;88.90;;;;;;6097928;23;20019;-66
2022/08/29 05:26:33;;;;;;;8.93;6.22;;;22.70;88.90;;;;;;6098138;23;20008;-66
2022/08/29 05:28:58;;;;;;;13.05;6.47;;;22.80;88.90;;;;;;6098104;23;20115;-66
2022/08/29 05:31:24;;;;;;;15.57;7.15;;;22.80;88.80;;;;;;6098138;23;20095;-66
2022/08/29 05:33:50;;;;;;;12.68;6.15;;;22.70;88.80;;;;;;6097812;23;20358;-66
2022/08/29 05:36:16;;;;;;;18.70;6.68;;;22.80;88.80;;;;;;6097903;23;20011;-66
2022/08/29 05:38:42;;;;;;;19.00;6.85;;;22.70;88.80;;;;;;6097931;23;20362;-66
2022/08/29 05:41:07;;;;;;;10.63;6.88;;;22.80;89.00;;;;;;6097824;23;20327;-66
2022/08/29 05:43:34;;;;;;;18.17;6.22;;;22.80;89.00;;;;;;6097379;23;20018;-66
2022/08/29 05:46:02;;;;;;;11.80;6.78;;;22.80;88.90;;;;;;6097708;23;19998;-66
2022/08/29 05:48:28;;;;;;;12.25;6.40;;;22.80;88.80;;;;;;6097769;23;20433;-66
2022/08/29 05:50:54;;;;;;;11.75;6.15;;;22.80;88.90;;;;;;6097628;23;20005;-66
2022/08/29 05:53:20;;;;;;;9.98;6.25;;;22.80;89.00;;;;;;6097551;23;20077;-66
2022/08/29 05:55:45;;;;;;;9.90;6.25;;;22.80;89.10;;;;;;6096839;23;20010;-66
2022/08/29 05:58:12;;;;;;;7.50;6.30;;;22.80;89.20;;;;;;6096994;23;20002;-67
2022/08/29 06:00:42;;;;;;;9.25;6.10;;;22.80;89.20;;;;;;6097356;23;20046;-66
2022/08/29 06:03:09;;;;;;;14.68;6.70;;;22.90;89.40;;;;;;6097267;23;20102;-66
2022/08/29 06:05:35;;;;;;;9.88;5.55;;;22.90;89.40;;;;;;6097424;23;20037;-67
2022/08/29 06:08:01;;;;;;;11.60;5.82;;;22.90;89.20;;;;;;6097226;23;20312;-66
2022/08/29 06:10:27;;;;;;;13.05;5.53;;;22.90;89.00;;;;;;6097242;23;20010;-66
2022/08/29 06:12:53;;;;;;;11.27;6.10;;;22.90;89.20;;;;;;6097275;23;20089;-67
2022/08/29 06:15:19;;;;;;;12.55;5.93;;;22.90;89.00;;;;;;6097210;23;20036;-66
2022/08/29 06:17:45;;;;;;;6.93;5.32;;;23.00;88.90;;;;;;6097315;23;20333;-66
2022/08/29 06:20:11;;;;;;;14.93;6.22;;;23.00;88.70;;;;;;6097333;23;20081;-66
2022/08/29 06:22:38;;;;;;;10.95;5.85;;;23.00;88.60;;;;;;6097270;23;20014;-66
2022/08/29 06:25:05;;;;;;;10.18;5.50;;;23.10;88.50;;;;;;6097274;23;20002;-66
2022/08/29 06:27:31;;;;;;;11.52;5.70;;;23.10;88.40;;;;;;6097353;23;20002;-66
2022/08/29 06:29:56;;;;;;;9.75;5.40;;;23.10;88.50;;;;;;6097130;23;20013;-66
2022/08/29 06:32:22;;;;;;;6.40;5.47;;;23.10;88.70;;;;;;6097421;23;20007;-66
2022/08/29 06:34:48;;;;;;;10.88;5.88;;;23.10;88.70;;;;;;6097147;23;20002;-66
2022/08/29 06:37:14;;;;;;;10.15;7.13;;;23.20;88.70;;;;;;6096827;23;20017;-66
2022/08/29 06:39:40;;;;;;;9.10;6.00;;;23.30;88.60;;;;;;6097051;23;20004;-66
2022/08/29 06:42:05;;;;;;;9.57;5.13;;;23.30;88.30;;;;;;6096795;23;20014;-67
2022/08/29 06:44:31;;;;;;;9.35;5.57;;;23.30;88.00;;;;;;6096981;23;20087;-66
2022/08/29 06:46:58;;;;;;;8.50;5.47;;;23.40;88.10;;;;;;6097514;23;19998;-66
2022/08/29 06:49:24;;;;;;;14.02;5.90;;;23.40;88.10;;;;;;6097013;23;20006;-66
2022/08/29 06:51:53;;;;;;;7.90;5.55;;;23.50;88.10;;;;;;6096942;23;20007;-66
2022/08/29 06:54:21;;;;;;;6.63;5.20;;;23.60;88.00;;;;;;6097236;23;20010;-66
2022/08/29 06:56:48;;;;;;;10.65;5.53;;;23.60;87.80;;;;;;6097067;23;20081;-66
2022/08/29 06:59:15;;;;;;;9.38;5.22;;;23.70;87.60;;;;;;6096973;23;20030;-66
2022/08/29 07:01:42;;;;;;;10.70;5.30;;;23.70;87.20;;;;;;6096798;23;20002;-66
2022/08/29 07:04:08;;;;;;;7.53;5.10;;;23.80;86.90;;;;;;6096469;23;20021;-67
2022/08/29 07:06:35;;;;;;;8.88;5.20;;;23.90;87.00;;;;;;6096950;23;20010;-66
2022/08/29 07:09:02;;;;;;;13.48;5.30;;;23.90;86.20;;;;;;6096841;23;20006;-66
2022/08/29 07:11:30;;;;;;;7.65;5.57;;;24.00;85.40;;;;;;6096503;23;20008;-66
2022/08/29 07:13:58;;;;;;;7.35;5.25;;;24.10;84.70;;;;;;6096751;23;20066;-66
2022/08/29 07:16:24;;;;;;;7.18;4.70;;;24.10;84.00;;;;;;6097111;23;20003;-66
2022/08/29 07:18:50;;;;;;;10.25;5.05;;;24.20;83.10;;;;;;6096917;23;20029;-67
2022/08/29 07:21:18;;;;;;;9.13;4.68;;;24.30;82.60;;;;;;6096658;23;19999;-66
2022/08/29 07:23:44;;;;;;;7.45;4.50;;;24.30;82.20;;;;;;6096755;23;20010;-66
2022/08/29 07:26:14;;;;;;;16.27;5.25;;;24.40;81.70;;;;;;6096830;23;20065;-66
2022/08/29 07:28:41;;;;;;;12.68;4.80;;;24.50;80.80;;;;;;6097305;23;20303;-66
2022/08/29 07:31:07;;;;;;;8.85;4.80;;;24.50;80.50;;;;;;6096867;23;20006;-66
2022/08/29 07:33:33;;;;;;;6.40;4.05;;;24.60;80.60;;;;;;6096888;23;20006;-66
2022/08/29 07:36:00;;;;;;;13.70;4.63;;;24.60;79.90;;;;;;6096860;23;20077;-66
2022/08/29 07:38:29;;;;;;;13.73;4.60;;;24.70;79.10;;;;;;6096708;23;20003;-66
2022/08/29 07:41:04;;;;;;;4.68;3.67;;;24.80;78.90;;;;;;6096486;23;20065;-66
2022/08/29 07:43:30;;;;;;;8.88;4.65;;;24.80;78.50;;;;;;6096883;23;20018;-67
2022/08/29 07:45:56;;;;;;;6.30;3.50;;;24.90;78.30;;;;;;6097143;23;20010;-67
2022/08/29 07:48:23;;;;;;;14.13;4.30;;;25.00;77.40;;;;;;6096904;23;20010;-67
2022/08/29 07:50:49;;;;;;;7.07;3.72;;;25.10;77.60;;;;;;6096947;23;19998;-66
2022/08/29 07:53:16;;;;;;;10.10;3.80;;;25.20;77.00;;;;;;6096664;23;20011;-66
2022/08/29 07:55:41;;;;;;;8.35;3.70;;;25.20;75.90;;;;;;6096897;23;20033;-66
2022/08/29 07:58:07;;;;;;;5.78;3.42;;;25.30;75.80;;;;;;6096859;23;20002;-66
2022/08/29 08:00:33;;;;;;;7.07;3.53;;;25.30;75.30;;;;;;6096649;23;20517;-66
2022/08/29 08:02:59;;;;;;;7.90;3.20;;;25.40;74.40;;;;;;6096954;23;20029;-66
2022/08/29 08:05:25;;;;;;;8.30;3.47;;;25.40;74.20;;;;;;6096893;23;19999;-67
2022/08/29 08:07:51;;;;;;;7.72;3.47;;;25.50;73.60;;;;;;6096912;23;20014;-66
2022/08/29 08:10:19;;;;;;;9.30;3.38;;;25.50;73.70;;;;;;6096684;23;20077;-67
2022/08/29 08:12:46;;;;;;;7.95;3.50;;;25.60;73.20;;;;;;6096714;23;20017;-66
2022/08/29 08:15:13;;;;;;;5.60;3.30;;;25.70;72.70;;;;;;6096523;23;20370;-66
2022/08/29 08:17:40;;;;;;;7.78;3.47;;;25.70;72.80;;;;;;6096824;23;20006;-66
2022/08/29 08:20:07;;;;;;;8.07;3.60;;;25.70;72.80;;;;;;6096669;23;20475;-66
2022/08/29 08:22:33;;;;;;;5.88;3.60;;;25.80;72.40;;;;;;6096602;23;20011;-67
2022/08/29 08:25:00;;;;;;;5.85;3.40;;;25.80;72.20;;;;;;6096614;23;20006;-66
2022/08/29 08:27:25;;;;;;;4.18;3.58;;;25.90;72.60;;;;;;6096722;23;20009;-66
2022/08/29 08:29:51;;;;;;;10.13;3.70;;;25.90;71.70;;;;;;6096668;23;20003;-67
2022/08/29 08:32:16;;;;;;;9.00;3.72;;;25.90;72.10;;;;;;6096600;23;20326;-67
2022/08/29 08:34:42;;;;;;;6.65;3.60;;;26.00;72.80;;;;;;6098214;23;20002;-67
2022/08/29 08:37:09;;;;;;;5.55;3.80;;;26.10;72.60;;;;;;6098442;23;20082;-66
2022/08/29 08:39:36;;;;;;;5.50;3.45;;;26.10;71.90;;;;;;6098353;23;20077;-66
2022/08/29 08:42:22;;;;;;;5.18;3.47;;;26.20;70.90;;;;;;6098043;23;20033;-66
2022/08/29 08:45:10;;;;;;;5.00;3.90;;;26.30;70.70;;;;;;6098255;23;20090;-66
2022/08/29 08:47:57;;;;;;;6.15;3.72;;;26.30;70.30;;;;;;6098219;23;19998;-66
2022/08/29 08:50:44;;;;;;;10.25;4.05;;;26.40;70.30;;;;;;6098300;23;20006;-67
2022/08/29 08:53:40;;;;;;;6.00;3.53;;;26.40;69.50;;;;;;6098337;23;20303;-68
2022/08/29 08:56:37;;;;;;;7.55;3.38;;;26.60;69.80;;;;;;6096551;23;20438;-67
2022/08/29 08:59:30;;;;;;;5.68;4.22;;;26.60;69.60;;;;;;6089586;23;20018;-67
2022/08/29 09:01:59;;;;;;;6.85;3.40;;;26.70;70.00;;;;;;6098309;23;20058;-66
2022/08/29 09:04:37;;;;;;;4.43;3.67;;;26.70;69.30;;;;;;6098304;23;20015;-66
2022/08/29 09:07:18;;;;;;;3.42;3.00;;;26.80;68.80;;;;;;6097967;23;20085;-68
2022/08/29 09:10:29;;;;;;;5.20;3.30;;;26.80;68.10;;;;;;6072410;23;20314;-67
2022/08/29 09:13:23;;;;;;;4.80;3.08;;;26.90;68.40;;;;;;6097908;23;20002;-66
2022/08/29 09:15:52;;;;;;;4.35;3.40;;;26.90;67.90;;;;;;6060647;23;20441;-66
2022/08/29 09:18:39;;;;;;;5.85;3.20;;;27.00;67.90;;;;;;6097811;23;20533;-67
2022/08/29 09:21:16;;;;;;;5.75;2.65;;;27.10;68.00;;;;;;6098075;23;20334;-66
2022/08/29 09:23:48;;;;;;;6.63;3.55;;;27.10;67.60;;;;;;6097903;23;20025;-68
2022/08/29 09:26:20;;;;;;;8.27;3.45;;;27.30;67.60;;;;;;6098278;23;20010;-67
2022/08/29 09:28:45;;;;;;;;;;;27.30;67.30;;;;;;6098470;23;20002;-67
2022/08/29 09:31:23;;;;;;;8.88;3.58;;;27.40;67.10;;;;;;6097462;23;19956;-66
2022/08/29 09:33:58;;;;;;;4.18;3.22;;;27.50;66.70;;;;;;6097561;23;20006;-66
2022/08/29 09:36:35;;;;;;;9.40;3.92;;;27.60;66.40;;;;;;6097475;23;20003;-67
2022/08/29 09:39:17;;;;;;;5.55;3.15;;;27.70;65.90;;;;;;6097492;23;20011;-67
2022/08/29 09:41:45;;;;;;;4.88;2.95;;;27.80;65.30;;;;;;6097793;23;20030;-67
2022/08/29 09:44:18;;;;;;;7.75;3.15;;;27.80;65.00;;;;;;6097735;23;20350;-66
2022/08/29 09:46:44;;;;;;;7.75;3.15;;;27.90;65.00;;;;;;6097878;23;20010;-67
2022/08/29 09:49:16;;;;;;;4.18;3.08;;;28.00;64.20;;;;;;6097468;23;20028;-67
2022/08/29 09:51:47;;;;;;;4.97;3.42;;;28.10;64.00;;;;;;6097510;23;20041;-67
2022/08/29 09:54:21;;;;;;;6.23;3.63;;;28.10;63.50;;;;;;6097538;23;20003;-67
2022/08/29 09:57:13;;;;;;;7.97;3.40;;;28.10;63.80;;;;;;6097669;23;20673;-66
2022/08/29 09:59:42;;;;;;;9.02;3.30;;;28.20;64.60;;;;;;6097541;23;20029;-66
2022/08/29 10:02:25;;;;;;;5.57;3.40;;;28.30;64.60;;;;;;6097470;23;19998;-66
2022/08/29 10:05:34;;;;;;;5.45;2.75;;;28.40;64.20;;;;;;6097223;23;20433;-66
2022/08/29 10:08:02;;;;;;;3.75;2.65;;;28.50;63.30;;;;;;6097504;23;20006;-67
2022/08/29 10:10:31;;;;;;;7.20;2.88;;;28.50;62.40;;;;;;6097372;23;20010;-67
2022/08/29 10:13:18;;;;;;;3.90;2.75;;;28.50;61.80;;;;;;6097225;23;20647;-67
2022/08/29 10:15:56;;;;;;;3.35;2.85;;;28.60;62.50;;;;;;6097319;23;20010;-67
2022/08/29 10:18:28;;;;;;;4.82;2.53;;;28.70;62.20;;;;;;6097316;23;20006;-67
2022/08/29 10:21:23;;;;;;;4.80;2.70;;;28.70;61.60;;;;;;6097284;23;20497;-67
2022/08/29 10:24:07;;;;;;;3.78;2.58;;;28.80;59.90;;;;;;6097322;23;20011;-67
2022/08/29 10:27:03;;;;;;;4.78;2.50;;;28.80;59.10;;;;;;6097492;23;20033;-67
2022/08/29 10:29:38;;;;;;;3.75;2.40;;;28.90;59.50;;;;;;6097314;23;20010;-66
2022/08/29 10:32:17;;;;;;;4.85;2.63;;;29.00;58.90;;;;;;6097343;23;20025;-67
2022/08/29 10:35:00;;;;;;;5.25;2.60;;;29.00;59.60;;;;;;6097358;23;20326;-67
2022/08/29 10:37:41;;;;;;;22.80;3.17;;;29.20;59.60;;;;;;6097152;23;20425;-67
2022/08/29 10:40:13;;;;;;;8.30;2.70;;;29.30;58.40;;;;;;6097362;23;20087;-67
2022/08/29 10:42:41;;;;;;;4.78;2.60;;;29.40;57.60;;;;;;6097099;23;20433;-67
2022/08/29 10:45:34;;;;;;;6.65;2.83;;;29.50;56.10;;;;;;6097139;23;20089;-67
2022/08/29 10:48:00;;;;;;;3.63;2.80;;;29.60;55.70;;;;;;6097038;23;20077;-67
2022/08/29 10:50:38;;;;;;;4.50;2.45;;;29.70;54.70;;;;;;6096923;23;20367;-67
2022/08/29 10:53:13;;;;;;;2.95;2.30;;;29.80;54.60;;;;;;6097016;23;20003;-67
2022/08/29 10:55:57;;;;;;;6.32;2.45;;;29.80;53.00;;;;;;6097202;23;20073;-66
2022/08/29 10:58:47;;;;;;;3.25;2.33;;;29.80;53.10;;;;;;6096785;23;20379;-67
2022/08/29 11:01:31;;;;;;;4.05;2.22;;;29.80;53.20;;;;;;6096906;23;20013;-66
2022/08/29 11:04:18;;;;;;;2.22;1.90;;;29.90;53.10;;;;;;6097183;23;20024;-66
2022/08/29 11:06:59;;;;;;;3.50;2.10;;;29.90;52.00;;;;;;6096989;23;20003;-67
2022/08/29 11:09:28;;;;;;;5.30;2.13;;;30.00;52.40;;;;;;6096960;23;19998;-67
2022/08/29 11:11:57;;;;;;;3.70;1.98;;;30.00;52.90;;;;;;6097004;23;20082;-67
2022/08/29 11:14:30;;;;;;;2.45;2.03;;;30.10;53.20;;;;;;6097062;23;20007;-67
2022/08/29 11:16:58;;;;;;;3.08;2.15;;;30.20;51.20;;;;;;6097115;23;20489;-67
2022/08/29 11:19:56;;;;;;;7.47;4.03;;;30.30;52.40;;;;;;6096873;23;20014;-67
2022/08/29 11:22:48;;;;;;;4.18;2.42;;;30.30;52.60;;;;;;6048517;23;20481;-67
2022/08/29 11:25:18;;;;;;;2.53;1.98;;;30.50;52.50;;;;;;6087685;23;20077;-67
2022/08/29 11:27:47;;;;;;;5.30;2.10;;;30.60;53.00;;;;;;6096855;23;20010;-67
2022/08/29 11:30:31;;;;;;;3.20;1.90;;;30.80;52.30;;;;;;6097205;23;20034;-66
2022/08/29 11:33:27;;;;;;;2.13;1.63;;;30.80;52.50;;;;;;6097425;23;20038;-67
2022/08/29 11:36:19;;;;;;;4.70;1.80;;;30.90;50.80;;;;;;6096743;23;20014;-67
2022/08/29 11:39:06;;;;;;;5.10;1.58;;;30.90;50.50;;;;;;6097132;23;20382;-67
2022/08/29 11:41:42;;;;;;;2.83;1.67;;;31.00;49.40;;;;;;6096469;23;20009;-67
2022/08/29 11:44:16;;;;;;;5.10;1.90;;;31.00;49.60;;;;;;6096773;23;20038;-67
2022/08/29 11:46:46;;;;;;;2.35;1.60;;;31.10;50.40;;;;;;6097404;23;20010;-67
2022/08/29 11:49:25;;;;;;;6.22;1.73;;;31.10;50.10;;;;;;6096773;23;20002;-67
2022/08/29 11:52:19;;;;;;;3.58;1.80;;;31.20;50.20;;;;;;6096719;23;20433;-67
2022/08/29 11:54:49;;;;;;;2.05;1.65;;;31.20;52.00;;;;;;6088212;23;20046;-66
2022/08/29 11:57:15;;;;;;;3.13;2.05;;;31.30;50.10;;;;;;6097151;23;20006;-67
2022/08/29 11:59:55;;;;;;;3.35;1.80;;;31.30;49.70;;;;;;6096687;23;20022;-67
2022/08/29 12:02:26;;;;;;;3.28;1.95;;;31.40;49.60;;;;;;6096946;23;20018;-67
2022/08/29 12:05:19;;;;;;;4.53;1.52;;;31.40;49.70;;;;;;6096890;23;20002;-67
2022/08/29 12:08:20;;;;;;;2.85;2.10;;;31.50;50.90;;;;;;6097059;23;20089;-67
2022/08/29 12:10:53;;;;;;;9.75;2.00;;;31.50;50.90;;;;;;6098416;23;20006;-67
2022/08/29 12:13:49;;;;;;;2.75;2.05;;;31.50;50.70;;;;;;6098621;23;20058;-67
2022/08/29 12:16:24;;;;;;;5.63;1.60;;;31.60;50.80;;;;;;6098690;23;20018;-67
2022/08/29 12:18:55;;;;;;;6.38;1.90;;;31.70;51.00;;;;;;6098953;23;20017;-67
2022/08/29 12:21:35;;;;;;;3.70;1.75;;;31.70;49.70;;;;;;6098688;23;20002;-67
2022/08/29 12:24:03;;;;;;;2.37;1.70;;;31.60;49.00;;;;;;6098254;23;20018;-67
2022/08/29 12:26:44;;;;;;;4.03;1.67;;;31.50;49.40;;;;;;6098622;23;20058;-67
2022/08/29 12:29:33;;;;;;;5.28;1.80;;;31.40;50.30;;;;;;6098630;23;20002;-67
2022/08/29 12:32:02;;;;;;;3.20;1.80;;;31.20;50.40;;;;;;6098385;23;20078;-67
2022/08/29 12:34:44;;;;;;;2.95;1.70;;;31.10;50.20;;;;;;6098206;23;20045;-66
2022/08/29 12:37:32;;;;;;;2.38;1.70;;;31.00;51.00;;;;;;6098706;23;20007;-67
2022/08/29 12:40:13;;;;;;;4.13;3.50;;;30.90;51.40;;;;;;6098587;23;20362;-67
2022/08/29 12:43:00;;;;;;;3.70;2.10;;;30.80;51.70;;;;;;6098319;23;20014;-67
2022/08/29 12:45:29;;;;;;;5.30;2.10;;;30.70;53.00;;;;;;6098563;23;19998;-67
2022/08/29 12:48:03;;;;;;;7.03;2.40;;;30.60;53.40;;;;;;6098282;23;20009;-66
2022/08/29 12:50:55;;;;;;;4.70;1.95;;;30.50;54.10;;;;;;6098533;23;20082;-67
2022/08/29 12:53:32;;;;;;;8.23;2.00;;;30.30;55.20;;;;;;6094262;23;20017;-67
2022/08/29 12:56:21;;;;;;;9.35;2.00;;;30.10;54.60;;;;;;6098491;23;20037;-66
2022/08/29 12:58:59;;;;;;;8.80;1.70;;;29.90;54.60;;;;;;6097797;23;20869;-67
2022/08/29 13:01:29;;;;;;;3.90;1.90;;;29.80;55.90;;;;;;6097839;23;20040;-67
2022/08/29 13:04:10;;;;;;;2.30;1.63;;;29.60;56.60;;;;;;6098125;23;20015;-67